createdAt,value
2023-04-12T00:02:27.807Z,6.90
2023-04-12T00:04:57.917Z,6.83
2023-04-12T00:07:25.961Z,6.53
2023-04-12T00:09:53.872Z,7.02
2023-04-12T00:12:22.228Z,7.06
2023-04-12T00:14:50.101Z,7.05
2023-04-12T00:17:19.570Z,7.15
2023-04-12T00:19:50.176Z,6.70
2023-04-12T00:22:18.177Z,6.71
2023-04-12T00:24:47.557Z,6.62
2023-04-12T00:27:16.065Z,6.53
2023-04-12T00:29:44.313Z,6.30
2023-04-12T00:32:12.244Z,6.30
2023-04-12T00:34:40.572Z,6.52
2023-04-12T00:37:08.554Z,6.73
2023-04-12T00:39:36.430Z,6.73
2023-04-12T00:42:05.584Z,6.71
2023-04-12T00:44:34.476Z,6.54
2023-04-12T00:47:05.521Z,6.36
2023-04-12T00:49:34.582Z,6.68
2023-04-12T00:52:05.739Z,6.28
2023-04-12T00:54:35.135Z,6.49
2023-04-12T00:57:03.493Z,6.28
2023-04-12T00:59:31.423Z,6.35
2023-04-12T01:02:00.493Z,6.16
2023-04-12T01:04:28.712Z,6.18
2023-04-12T01:07:17.798Z,6.10
2023-04-12T01:10:15.334Z,6.33
2023-04-12T01:13:08.688Z,6.26
2023-04-12T01:15:41.992Z,6.45
2023-04-12T01:18:14.872Z,6.25
2023-04-12T01:20:50.959Z,6.00
2023-04-12T01:23:24.873Z,6.30
2023-04-12T01:26:08.824Z,5.84
2023-04-12T01:28:39.217Z,6.13
2023-04-12T01:31:09.029Z,6.43
2023-04-12T01:33:38.569Z,6.15
2023-04-12T01:36:32.813Z,5.86
2023-04-12T01:39:05.020Z,5.70
2023-04-12T01:41:33.609Z,5.96
2023-04-12T01:44:01.927Z,5.95
2023-04-12T01:46:30.338Z,6.28
2023-04-12T01:48:59.835Z,6.38
2023-04-12T01:51:40.694Z,6.37
2023-04-12T01:54:14.226Z,6.25
2023-04-12T01:56:47.901Z,6.48
2023-04-12T01:59:16.636Z,6.31
2023-04-12T02:01:47.220Z,6.09
2023-04-12T02:04:16.821Z,5.86
2023-04-12T02:06:46.478Z,5.96
2023-04-12T02:09:14.423Z,5.90
2023-04-12T02:11:46.887Z,5.85
2023-04-12T02:14:15.602Z,5.87
2023-04-12T02:16:46.081Z,5.80
2023-04-12T02:19:14.344Z,5.89
2023-04-12T02:21:44.265Z,5.63
2023-04-12T02:24:13.003Z,5.83
2023-04-12T02:26:40.952Z,5.79
2023-04-12T02:29:10.583Z,6.20
2023-04-12T02:31:39.304Z,5.83
2023-04-12T02:34:07.998Z,5.48
2023-04-12T02:36:38.123Z,5.58
2023-04-12T02:39:07.942Z,5.75
2023-04-12T02:41:36.762Z,5.27
2023-04-12T02:44:06.256Z,4.99
2023-04-12T02:46:34.518Z,5.21
2023-04-12T02:49:03.718Z,5.38
2023-04-12T02:51:32.046Z,5.19
2023-04-12T02:54:01.493Z,5.31
2023-04-12T02:56:30.498Z,5.20
2023-04-12T02:58:59.059Z,5.29
2023-04-12T03:01:29.049Z,4.99
2023-04-12T03:03:58.690Z,4.94
2023-04-12T03:06:27.458Z,5.05
2023-04-12T03:08:55.788Z,5.02
2023-04-12T03:11:24.159Z,5.22
2023-04-12T03:13:52.661Z,5.04
2023-04-12T03:16:26.105Z,5.15
2023-04-12T03:18:57.041Z,5.13
2023-04-12T03:21:26.557Z,4.80
2023-04-12T03:23:56.223Z,5.22
2023-04-12T03:26:26.788Z,4.83
2023-04-12T03:29:01.130Z,4.60
2023-04-12T03:31:29.790Z,4.70
2023-04-12T03:33:59.237Z,4.72
2023-04-12T03:36:29.922Z,4.41
2023-04-12T03:38:58.418Z,4.34
2023-04-12T03:41:28.459Z,4.78
2023-04-12T03:43:57.011Z,4.47
2023-04-12T03:46:26.232Z,4.28
2023-04-12T03:48:54.731Z,4.71
2023-04-12T03:51:27.026Z,4.59
2023-04-12T03:53:56.368Z,4.80
2023-04-12T03:56:24.588Z,4.49
2023-04-12T03:58:53.194Z,4.44
2023-04-12T04:01:22.149Z,4.84
2023-04-12T04:03:51.329Z,4.90
2023-04-12T04:06:19.592Z,4.56
2023-04-12T04:08:47.683Z,4.64
2023-04-12T04:11:16.583Z,4.27
2023-04-12T04:13:46.844Z,4.57
2023-04-12T04:16:18.271Z,4.21
2023-04-12T04:18:46.752Z,4.46
2023-04-12T04:21:15.270Z,4.54
2023-04-12T04:23:48.157Z,4.67
2023-04-12T04:26:17.184Z,4.42
2023-04-12T04:28:46.701Z,4.23
2023-04-12T04:31:17.828Z,4.59
2023-04-12T04:33:48.725Z,4.53
2023-04-12T04:36:16.888Z,4.42
2023-04-12T04:38:46.214Z,4.76
2023-04-12T04:41:15.650Z,5.17
2023-04-12T04:43:46.986Z,5.55
2023-04-12T04:46:15.629Z,6.26
2023-04-12T04:48:43.775Z,6.55
2023-04-12T04:51:11.702Z,6.20
2023-04-12T04:53:41.026Z,7.42
2023-04-12T04:56:11.612Z,8.39
2023-04-12T04:58:40.811Z,8.14
2023-04-12T05:01:09.396Z,8.38
2023-04-12T05:03:38.053Z,8.21
2023-04-12T05:06:06.905Z,9.10
2023-04-12T05:08:35.731Z,8.88
2023-04-12T05:11:04.278Z,8.63
2023-04-12T05:13:32.704Z,9.22
2023-04-12T05:16:00.678Z,8.78
2023-04-12T05:18:28.579Z,8.81
2023-04-12T05:20:57.022Z,8.53
2023-04-12T05:23:25.374Z,8.73
2023-04-12T05:25:53.634Z,8.68
2023-04-12T05:28:22.099Z,8.53
2023-04-12T05:30:50.549Z,8.14
2023-04-12T05:33:19.520Z,8.54
2023-04-12T05:35:47.915Z,9.12
2023-04-12T05:38:15.860Z,10.12
2023-04-12T05:40:44.438Z,10.35
2023-04-12T05:43:13.987Z,9.89
2023-04-12T05:45:42.161Z,9.09
2023-04-12T05:48:10.638Z,8.68
2023-04-12T05:50:39.119Z,9.27
2023-04-12T05:53:07.363Z,9.30
2023-04-12T05:55:37.893Z,9.51
2023-04-12T05:58:07.426Z,9.26
2023-04-12T06:00:45.709Z,9.46
2023-04-12T06:03:14.386Z,10.35
2023-04-12T06:05:42.363Z,9.44
2023-04-12T06:08:10.566Z,9.57
2023-04-12T06:10:40.561Z,10.41
2023-04-12T06:13:08.855Z,10.05
2023-04-12T06:15:37.411Z,10.15
2023-04-12T06:18:07.573Z,9.99
2023-04-12T06:20:35.744Z,10.00
2023-04-12T06:23:06.819Z,10.10
2023-04-12T06:25:35.739Z,11.29
2023-04-12T06:28:04.674Z,12.32
2023-04-12T06:30:33.846Z,12.56
2023-04-12T06:33:01.871Z,12.46
2023-04-12T06:35:29.840Z,11.94
2023-04-12T06:37:58.137Z,11.31
2023-04-12T06:40:26.319Z,11.97
2023-04-12T06:42:54.305Z,11.19
2023-04-12T06:45:23.180Z,12.30
2023-04-12T06:47:51.184Z,12.13
2023-04-12T06:50:19.086Z,11.87
2023-04-12T06:52:48.633Z,11.97
2023-04-12T06:55:16.682Z,11.79
2023-04-12T06:57:46.369Z,12.54
2023-04-12T07:00:16.661Z,12.68
2023-04-12T07:02:44.722Z,12.94
2023-04-12T07:05:13.879Z,12.89
2023-04-12T07:07:42.442Z,12.19
2023-04-12T07:10:10.949Z,12.27
2023-04-12T07:12:38.897Z,12.18
2023-04-12T07:15:07.720Z,13.07
2023-04-12T07:17:35.828Z,13.07
2023-04-12T07:20:04.076Z,12.62
2023-04-12T07:22:32.350Z,13.15
2023-04-12T07:25:00.314Z,12.23
2023-04-12T07:27:28.300Z,13.06
2023-04-12T07:29:58.645Z,13.07
2023-04-12T07:32:27.614Z,13.65
2023-04-12T07:34:55.742Z,13.16
2023-04-12T07:37:24.116Z,13.97
2023-04-12T07:39:52.078Z,13.69
2023-04-12T07:42:20.052Z,14.36
2023-04-12T07:44:48.381Z,14.19
2023-04-12T07:47:16.280Z,14.31
2023-04-12T07:49:44.240Z,13.70
2023-04-12T07:52:14.211Z,14.68
2023-04-12T07:54:42.799Z,14.77
2023-04-12T07:57:11.030Z,14.92
2023-04-12T07:59:39.440Z,15.35
2023-04-12T08:02:07.553Z,14.69
2023-04-12T08:04:37.553Z,15.49
2023-04-12T08:07:05.586Z,15.04
2023-04-12T08:09:33.632Z,14.56
2023-04-12T08:12:02.205Z,15.06
2023-04-12T08:14:30.173Z,15.28
2023-04-12T08:16:58.330Z,14.95
2023-04-12T08:19:27.472Z,14.73
2023-04-12T08:21:55.641Z,14.76
2023-04-12T08:24:25.307Z,15.13
2023-04-12T08:26:53.769Z,15.08
2023-04-12T08:29:21.659Z,15.73
2023-04-12T08:31:49.617Z,15.71
2023-04-12T08:34:18.021Z,15.99
2023-04-12T08:36:47.645Z,16.09
2023-04-12T08:39:15.747Z,16.27
2023-04-12T08:41:44.213Z,16.10
2023-04-12T08:44:12.526Z,15.30
2023-04-12T08:46:41.070Z,16.80
2023-04-12T08:49:11.646Z,16.29
2023-04-12T08:51:40.181Z,16.51
2023-04-12T08:54:08.146Z,16.56
2023-04-12T08:56:36.723Z,16.46
2023-04-12T08:59:04.826Z,16.73
2023-04-12T09:01:33.768Z,16.75
2023-04-12T09:04:07.108Z,17.09
2023-04-12T09:06:37.394Z,16.98
2023-04-12T09:09:08.116Z,16.56
2023-04-12T09:11:36.623Z,16.96
2023-04-12T09:14:06.390Z,16.63
2023-04-12T09:16:36.358Z,16.64
2023-04-12T09:19:05.238Z,17.02
2023-04-12T09:21:37.296Z,17.32
2023-04-12T09:24:13.545Z,18.28
2023-04-12T09:26:42.621Z,17.34
2023-04-12T09:29:25.802Z,17.90
2023-04-12T09:32:01.480Z,17.46
2023-04-12T09:34:32.328Z,17.41
2023-04-12T09:37:00.374Z,17.32
2023-04-12T09:39:34.746Z,17.21
2023-04-12T09:42:14.876Z,18.10
2023-04-12T09:44:54.765Z,18.65
2023-04-12T09:47:23.171Z,18.71
2023-04-12T09:49:51.158Z,18.31
2023-04-12T09:52:20.334Z,17.52
2023-04-12T09:54:51.799Z,17.79
2023-04-12T09:57:23.383Z,17.43
2023-04-12T09:59:53.046Z,17.98
2023-04-12T10:02:28.468Z,18.52
2023-04-12T10:04:57.142Z,18.84
2023-04-12T10:07:27.438Z,19.22
2023-04-12T10:09:58.689Z,19.04
2023-04-12T10:12:29.328Z,18.83
2023-04-12T10:14:58.313Z,19.35
2023-04-12T10:17:27.079Z,19.72
2023-04-12T10:19:55.312Z,19.70
2023-04-12T10:22:23.284Z,20.21
2023-04-12T10:24:51.723Z,20.48
2023-04-12T10:27:37.754Z,19.88
2023-04-12T10:30:28.955Z,18.37
2023-04-12T10:33:03.270Z,19.29
2023-04-12T10:35:49.984Z,19.73
2023-04-12T10:38:18.763Z,20.31
2023-04-12T10:41:15.247Z,19.74
2023-04-12T10:43:50.207Z,19.55
2023-04-12T10:46:40.420Z,19.82
2023-04-12T10:49:09.846Z,20.25
2023-04-12T10:51:38.537Z,20.74
2023-04-12T10:54:12.476Z,20.92
2023-04-12T10:56:43.483Z,21.48
2023-04-12T10:59:13.520Z,21.78
2023-04-12T11:01:46.670Z,20.30
2023-04-12T11:04:22.948Z,20.85
2023-04-12T11:06:53.406Z,23.11
2023-04-12T11:09:25.595Z,22.96
2023-04-12T11:12:09.571Z,25.19
2023-04-12T11:14:44.808Z,25.26
2023-04-12T11:17:13.356Z,24.78
2023-04-12T11:19:51.765Z,25.46
2023-04-12T11:22:23.476Z,25.90
2023-04-12T11:24:56.736Z,26.11
2023-04-12T11:27:26.590Z,26.30
2023-04-12T11:29:59.411Z,24.73
2023-04-12T11:32:31.576Z,25.74
2023-04-12T11:34:59.583Z,25.88
2023-04-12T11:37:31.077Z,24.47
2023-04-12T11:40:07.444Z,24.54
2023-04-12T11:42:36.133Z,25.65
2023-04-12T11:45:09.507Z,25.50
2023-04-12T11:47:45.576Z,25.09
2023-04-12T11:50:15.048Z,25.01
2023-04-12T11:52:43.326Z,24.44
2023-04-12T11:55:11.623Z,21.63
2023-04-12T11:57:39.690Z,21.70
2023-04-12T12:00:08.708Z,20.98
2023-04-12T12:02:49.012Z,19.95
2023-04-12T12:05:24.894Z,19.97
2023-04-12T12:07:54.329Z,20.30
2023-04-12T12:10:37.762Z,20.77
2023-04-12T12:13:13.468Z,20.02
2023-04-12T12:15:45.372Z,19.71
2023-04-12T12:18:15.368Z,19.84
2023-04-12T12:20:49.395Z,18.85
2023-04-12T12:23:38.127Z,18.95
2023-04-12T12:26:19.056Z,19.75
2023-04-12T12:28:54.969Z,20.01
2023-04-12T12:31:24.646Z,20.35
2023-04-12T12:33:58.540Z,20.22
2023-04-12T12:36:38.999Z,20.09
2023-04-12T12:39:12.759Z,19.48
2023-04-12T12:41:41.710Z,20.02
2023-04-12T12:44:12.455Z,19.56
2023-04-12T12:49:11.828Z,18.44
2023-04-12T12:51:43.484Z,18.33
2023-04-12T12:54:14.324Z,18.85
2023-04-12T12:56:46.256Z,18.92
2023-04-12T12:59:14.582Z,19.24
2023-04-12T13:01:42.549Z,19.42
2023-04-12T13:04:10.624Z,19.00
2023-04-12T13:06:39.512Z,19.34
2023-04-12T13:09:07.453Z,19.24
2023-04-12T13:11:35.353Z,19.28
2023-04-12T13:14:03.744Z,19.57
2023-04-12T13:16:31.889Z,19.81
2023-04-12T13:19:00.100Z,18.36
2023-04-12T13:21:28.615Z,19.38
2023-04-12T13:23:58.578Z,19.34
2023-04-12T13:26:26.510Z,19.40
2023-04-12T13:28:54.806Z,19.29
2023-04-12T13:31:22.779Z,18.48
2023-04-12T13:33:50.756Z,18.63
2023-04-12T13:36:18.999Z,19.35
2023-04-12T13:38:47.736Z,18.49
2023-04-12T13:41:15.705Z,18.35
2023-04-12T13:43:43.980Z,18.98
2023-04-12T13:46:13.226Z,18.70
2023-04-12T13:48:41.282Z,18.33
2023-04-12T13:51:10.084Z,17.68
2023-04-12T13:53:40.610Z,17.93
2023-04-12T13:56:08.669Z,18.73
2023-04-12T13:58:41.612Z,18.15
2023-04-12T14:01:10.115Z,18.00
2023-04-12T14:03:38.487Z,18.17
2023-04-12T14:06:07.607Z,17.99
2023-04-12T14:08:35.977Z,18.03
2023-04-12T14:11:04.458Z,18.62
2023-04-12T14:13:32.367Z,19.05
2023-04-12T14:16:00.275Z,18.40
2023-04-12T14:18:28.659Z,18.48
2023-04-12T14:20:57.968Z,18.48
2023-04-12T14:23:27.615Z,18.33
2023-04-12T14:25:56.076Z,18.08
2023-04-12T14:28:29.764Z,19.03
2023-04-12T14:30:58.370Z,18.14
2023-04-12T14:33:26.348Z,18.82
2023-04-12T14:35:54.327Z,17.50
2023-04-12T14:38:23.031Z,17.47
2023-04-12T14:40:54.601Z,18.17
2023-04-12T14:43:22.888Z,17.90
2023-04-12T14:45:51.186Z,17.66
2023-04-12T14:48:21.297Z,17.78
2023-04-12T14:50:49.637Z,18.08
2023-04-12T14:53:18.969Z,17.92
2023-04-12T14:55:47.100Z,17.88
2023-04-12T14:58:15.332Z,17.89
2023-04-12T15:00:43.280Z,17.54
2023-04-12T15:03:11.486Z,16.89
2023-04-12T15:05:39.950Z,17.11
2023-04-12T15:08:07.886Z,17.63
2023-04-12T15:10:38.700Z,18.11
2023-04-12T15:13:08.627Z,17.67
2023-04-12T15:15:36.622Z,17.87
2023-04-12T15:18:04.777Z,17.83
2023-04-12T15:20:33.324Z,17.33
2023-04-12T15:23:01.349Z,17.14
2023-04-12T15:25:30.971Z,16.89
2023-04-12T15:27:59.481Z,16.26
2023-04-12T15:30:27.989Z,16.16
2023-04-12T15:32:55.870Z,16.15
2023-04-12T15:35:27.014Z,15.96
2023-04-12T15:37:55.744Z,15.99
2023-04-12T15:40:24.646Z,16.79
2023-04-12T15:42:52.730Z,16.34
2023-04-12T15:45:22.360Z,16.61
2023-04-12T15:47:51.012Z,16.56
2023-04-12T15:50:19.204Z,16.13
2023-04-12T15:52:48.721Z,15.72
2023-04-12T15:55:22.036Z,16.31
2023-04-12T15:57:49.957Z,15.92
2023-04-12T16:00:21.416Z,15.68
2023-04-12T16:02:57.834Z,15.87
2023-04-12T16:05:26.844Z,15.58
2023-04-12T16:07:56.829Z,16.39
2023-04-12T16:10:26.717Z,16.17
2023-04-12T16:12:56.734Z,15.56
2023-04-12T16:15:25.089Z,15.65
2023-04-12T16:17:56.330Z,15.18
2023-04-12T16:20:24.614Z,15.85
2023-04-12T16:22:58.297Z,15.37
2023-04-12T16:25:31.746Z,14.95
2023-04-12T16:28:02.654Z,15.10
2023-04-12T16:30:34.236Z,14.75
2023-04-12T16:33:02.352Z,14.26
2023-04-12T16:35:31.098Z,14.39
2023-04-12T16:37:59.005Z,14.20
2023-04-12T16:40:26.961Z,13.87
2023-04-12T16:42:55.237Z,13.92
2023-04-12T16:45:24.111Z,13.32
2023-04-12T16:47:52.074Z,13.38
2023-04-12T16:50:22.175Z,13.25
2023-04-12T16:52:51.930Z,12.85
2023-04-12T16:55:20.874Z,12.41
2023-04-12T16:57:53.238Z,12.26
2023-04-12T17:00:24.739Z,11.85
2023-04-12T17:02:54.124Z,11.54
2023-04-12T17:05:23.294Z,11.20
2023-04-12T17:07:54.285Z,11.38
2023-04-12T17:10:24.702Z,10.89
2023-04-12T17:12:54.902Z,10.74
2023-04-12T17:15:25.542Z,10.56
2023-04-12T17:17:57.689Z,9.64
2023-04-12T17:20:26.132Z,9.08
2023-04-12T17:22:55.211Z,9.13
2023-04-12T17:25:24.902Z,9.07
2023-04-12T17:27:54.917Z,8.88
2023-04-12T17:30:23.735Z,8.27
2023-04-12T17:32:53.818Z,8.22
2023-04-12T17:35:22.326Z,7.87
2023-04-12T17:37:50.235Z,7.64
2023-04-12T17:40:18.665Z,7.55
2023-04-12T17:42:46.961Z,7.78
2023-04-12T17:45:14.984Z,7.34
2023-04-12T17:47:43.042Z,7.20
2023-04-12T17:50:12.138Z,6.77
2023-04-12T17:52:40.157Z,6.53
2023-04-12T17:55:12.580Z,6.58
2023-04-12T17:57:41.852Z,6.29
2023-04-12T18:00:12.005Z,5.92
2023-04-12T18:02:42.267Z,6.48
2023-04-12T18:05:14.096Z,6.32
2023-04-12T18:07:42.806Z,6.10
2023-04-12T18:10:21.122Z,5.98
2023-04-12T18:12:51.357Z,6.15
2023-04-12T18:15:20.421Z,6.04
2023-04-12T18:17:52.125Z,6.03
2023-04-12T18:20:21.559Z,7.17
2023-04-12T18:22:49.483Z,6.59
2023-04-12T18:25:17.394Z,6.25
2023-04-12T18:27:48.699Z,5.78
2023-04-12T18:30:19.122Z,5.43
2023-04-12T18:32:48.144Z,5.54
2023-04-12T18:35:16.363Z,5.63
2023-04-12T18:37:44.607Z,5.54
2023-04-12T18:40:13.497Z,5.34
2023-04-12T18:42:45.837Z,5.38
2023-04-12T18:45:14.594Z,5.47
2023-04-12T18:47:42.570Z,5.59
2023-04-12T18:50:11.703Z,5.25
2023-04-12T18:52:40.088Z,5.41
2023-04-12T18:55:08.586Z,5.16
2023-04-12T18:57:36.691Z,5.42
2023-04-12T19:00:14.025Z,5.22
2023-04-12T19:02:41.951Z,4.97
2023-04-12T19:05:12.747Z,5.11
2023-04-12T19:07:41.334Z,4.71
2023-04-12T19:10:09.739Z,4.72
2023-04-12T19:12:38.423Z,4.94
2023-04-12T19:15:08.494Z,5.06
2023-04-12T19:17:39.718Z,4.77
2023-04-12T19:20:12.101Z,4.92
2023-04-12T19:22:41.133Z,4.63
2023-04-12T19:25:10.221Z,4.89
2023-04-12T19:27:38.888Z,5.11
2023-04-12T19:30:07.531Z,5.24
2023-04-12T19:32:35.867Z,4.94
2023-04-12T19:35:03.974Z,4.91
2023-04-12T19:37:34.372Z,4.83
2023-04-12T19:40:02.673Z,4.97
2023-04-12T19:42:30.896Z,4.71
2023-04-12T19:45:00.642Z,4.83
2023-04-12T19:47:29.256Z,4.90
2023-04-12T19:49:57.406Z,4.74
2023-04-12T19:52:27.506Z,4.81
2023-04-12T19:54:57.471Z,4.65
2023-04-12T19:57:27.819Z,4.50
2023-04-12T19:59:56.131Z,4.68
2023-04-12T20:02:24.802Z,4.26
2023-04-12T20:04:53.653Z,4.19
2023-04-12T20:07:21.655Z,4.64
2023-04-12T20:09:50.032Z,4.26
2023-04-12T20:12:19.435Z,4.33
2023-04-12T20:14:47.333Z,4.20
2023-04-12T20:17:15.391Z,4.21
2023-04-12T20:19:43.729Z,4.28
2023-04-12T20:22:12.613Z,3.81
2023-04-12T20:24:40.585Z,4.20
2023-04-12T20:27:09.725Z,4.10
2023-04-12T20:29:37.795Z,4.36
2023-04-12T20:32:05.875Z,4.23
2023-04-12T20:34:34.464Z,4.08
2023-04-12T20:37:02.360Z,3.93
2023-04-12T20:39:30.946Z,3.84
2023-04-12T20:42:01.365Z,3.68
2023-04-12T20:44:29.311Z,3.71
2023-04-12T20:46:57.834Z,4.01
2023-04-12T20:49:28.125Z,4.03
2023-04-12T20:51:59.361Z,4.30
2023-04-12T20:54:30.296Z,4.22
2023-04-12T20:57:00.156Z,4.09
2023-04-12T20:59:30.454Z,4.39
2023-04-12T21:01:59.257Z,4.29
2023-04-12T21:04:28.032Z,3.91
2023-04-12T21:06:57.677Z,4.12
2023-04-12T21:09:25.691Z,3.96
2023-04-12T21:11:53.787Z,3.65
2023-04-12T21:14:22.059Z,3.90
2023-04-12T21:16:50.095Z,3.74
2023-04-12T21:19:18.617Z,4.04
2023-04-12T21:21:47.358Z,3.65
2023-04-12T21:24:15.414Z,3.72
2023-04-12T21:26:43.812Z,3.91
2023-04-12T21:29:12.083Z,3.99
2023-04-12T21:31:41.852Z,4.22
2023-04-12T21:34:10.375Z,4.27
2023-04-12T21:36:38.904Z,4.27
2023-04-12T21:39:10.652Z,4.49
2023-04-12T21:41:38.992Z,4.78
2023-04-12T21:44:07.467Z,4.72
2023-04-12T21:46:35.776Z,4.94
2023-04-12T21:49:05.245Z,5.08
2023-04-12T21:51:33.333Z,4.88
2023-04-12T21:54:01.334Z,4.71
2023-04-12T21:56:29.597Z,4.63
2023-04-12T21:59:00.031Z,4.54
2023-04-12T22:01:28.136Z,4.58
2023-04-12T22:03:57.446Z,5.01
2023-04-12T22:06:25.529Z,5.00
2023-04-12T22:08:53.976Z,4.84
2023-04-12T22:11:22.275Z,5.03
2023-04-12T22:13:50.415Z,4.75
2023-04-12T22:16:18.292Z,4.68
2023-04-12T22:18:47.093Z,4.87
2023-04-12T22:21:15.510Z,5.07
2023-04-12T22:23:44.050Z,5.32
2023-04-12T22:26:13.614Z,5.13
2023-04-12T22:28:42.819Z,5.08
2023-04-12T22:31:14.688Z,5.74
2023-04-12T22:33:43.964Z,5.02
2023-04-12T22:36:11.924Z,5.55
2023-04-12T22:38:40.357Z,5.22
2023-04-12T22:41:08.629Z,5.31
2023-04-12T22:43:43.110Z,5.54
2023-04-12T22:46:18.902Z,5.56
2023-04-12T22:48:50.112Z,5.58
2023-04-12T22:51:18.401Z,5.81
2023-04-12T22:53:46.368Z,5.73
2023-04-12T22:56:14.359Z,5.97
2023-04-12T22:58:43.335Z,6.16
2023-04-12T23:01:11.277Z,6.24
2023-04-12T23:03:41.798Z,6.37
2023-04-12T23:06:13.001Z,6.44
2023-04-12T23:08:41.008Z,6.41
2023-04-12T23:11:09.284Z,6.59
2023-04-12T23:13:37.322Z,7.02
2023-04-12T23:16:07.220Z,6.92
2023-04-12T23:18:36.109Z,6.75
2023-04-12T23:21:04.150Z,6.91
2023-04-12T23:23:32.074Z,7.02
2023-04-12T23:26:01.172Z,7.08
2023-04-12T23:28:29.327Z,7.11
2023-04-12T23:30:58.049Z,7.31
2023-04-12T23:33:26.417Z,7.36
2023-04-12T23:35:56.274Z,7.06
2023-04-12T23:38:26.331Z,7.17
2023-04-12T23:40:54.696Z,7.17
2023-04-12T23:43:23.524Z,7.29
2023-04-12T23:45:55.604Z,7.46
2023-04-12T23:48:24.616Z,7.38
2023-04-12T23:50:52.501Z,7.56
2023-04-12T23:53:21.209Z,7.34
2023-04-12T23:55:52.094Z,7.60
2023-04-12T23:58:20.982Z,7.60
